sensor_id;sensor_type;location;lat;lon;timestamp;temperature;humidity
19880;DHT22;10102;50.828;4.416;2024-01-27T00:01:56;6.80;99.90
19880;DHT22;10102;50.828;4.416;2024-01-27T00:04:22;6.70;99.90
19880;DHT22;10102;50.828;4.416;2024-01-27T00:06:47;6.70;99.90
19880;DHT22;10102;50.828;4.416;2024-01-27T00:09:13;6.70;99.90
19880;DHT22;10102;50.828;4.416;2024-01-27T00:14:05;6.70;99.90
19880;DHT22;10102;50.828;4.416;2024-01-27T00:16:31;7.10;99.90
19880;DHT22;10102;50.828;4.416;2024-01-27T00:18:56;6.70;99.90
19880;DHT22;10102;50.828;4.416;2024-01-27T00:21:23;6.70;99.90
19880;DHT22;10102;50.828;4.416;2024-01-27T00:23:48;6.60;99.90
19880;DHT22;10102;50.828;4.416;2024-01-27T00:26:14;6.70;99.90
19880;DHT22;10102;50.828;4.416;2024-01-27T00:28:40;6.60;99.90
19880;DHT22;10102;50.828;4.416;2024-01-27T00:33:31;6.60;99.90
19880;DHT22;10102;50.828;4.416;2024-01-27T00:35:57;6.60;99.90
19880;DHT22;10102;50.828;4.416;2024-01-27T00:38:23;6.50;99.90
19880;DHT22;10102;50.828;4.416;2024-01-27T00:40:48;6.80;99.90
19880;DHT22;10102;50.828;4.416;2024-01-27T00:43:14;6.70;99.90
19880;DHT22;10102;50.828;4.416;2024-01-27T00:48:06;6.40;99.90
19880;DHT22;10102;50.828;4.416;2024-01-27T00:50:32;6.00;99.90
19880;DHT22;10102;50.828;4.416;2024-01-27T00:52:57;6.40;99.90
19880;DHT22;10102;50.828;4.416;2024-01-27T00:55:23;6.50;99.90
19880;DHT22;10102;50.828;4.416;2024-01-27T01:00:15;6.40;99.90
19880;DHT22;10102;50.828;4.416;2024-01-27T01:02:41;6.40;99.90
19880;DHT22;10102;50.828;4.416;2024-01-27T01:05:07;6.40;99.90
19880;DHT22;10102;50.828;4.416;2024-01-27T01:07:33;6.40;99.90
19880;DHT22;10102;50.828;4.416;2024-01-27T01:09:59;6.30;99.90
19880;DHT22;10102;50.828;4.416;2024-01-27T01:12:24;6.40;99.90
19880;DHT22;10102;50.828;4.416;2024-01-27T01:14:53;6.40;99.90
19880;DHT22;10102;50.828;4.416;2024-01-27T01:19:45;6.30;99.90
19880;DHT22;10102;50.828;4.416;2024-01-27T01:22:11;6.20;99.90
19880;DHT22;10102;50.828;4.416;2024-01-27T01:24:36;6.30;99.90
19880;DHT22;10102;50.828;4.416;2024-01-27T01:27:02;6.20;99.90
19880;DHT22;10102;50.828;4.416;2024-01-27T01:29:28;6.20;99.90
19880;DHT22;10102;50.828;4.416;2024-01-27T01:31:54;6.20;99.90
19880;DHT22;10102;50.828;4.416;2024-01-27T01:34:20;6.30;99.90
19880;DHT22;10102;50.828;4.416;2024-01-27T01:36:45;6.30;99.90
19880;DHT22;10102;50.828;4.416;2024-01-27T01:39:13;6.80;99.90
19880;DHT22;10102;50.828;4.416;2024-01-27T01:41:45;6.30;99.90
19880;DHT22;10102;50.828;4.416;2024-01-27T01:44:11;6.40;99.90
19880;DHT22;10102;50.828;4.416;2024-01-27T01:49:03;6.30;99.90
19880;DHT22;10102;50.828;4.416;2024-01-27T01:53:58;6.30;99.90
19880;DHT22;10102;50.828;4.416;2024-01-27T01:56:27;6.30;99.90
19880;DHT22;10102;50.828;4.416;2024-01-27T01:58:55;6.00;99.90
19880;DHT22;10102;50.828;4.416;2024-01-27T02:01:21;6.10;99.90
19880;DHT22;10102;50.828;4.416;2024-01-27T02:03:52;5.70;99.90
19880;DHT22;10102;50.828;4.416;2024-01-27T02:06:27;6.20;99.90
19880;DHT22;10102;50.828;4.416;2024-01-27T02:11:18;6.10;99.90
19880;DHT22;10102;50.828;4.416;2024-01-27T02:13:44;6.10;99.90
19880;DHT22;10102;50.828;4.416;2024-01-27T02:16:10;6.30;99.90
19880;DHT22;10102;50.828;4.416;2024-01-27T02:18:35;6.10;99.90
19880;DHT22;10102;50.828;4.416;2024-01-27T02:21:01;6.20;99.90
19880;DHT22;10102;50.828;4.416;2024-01-27T02:23:28;6.20;99.90
19880;DHT22;10102;50.828;4.416;2024-01-27T02:25:53;6.10;99.90
19880;DHT22;10102;50.828;4.416;2024-01-27T02:28:19;6.00;99.90
19880;DHT22;10102;50.828;4.416;2024-01-27T02:30:47;6.00;99.90
19880;DHT22;10102;50.828;4.416;2024-01-27T02:33:12;6.00;99.90
19880;DHT22;10102;50.828;4.416;2024-01-27T02:35:38;5.90;99.90
19880;DHT22;10102;50.828;4.416;2024-01-27T02:38:04;6.00;99.90
19880;DHT22;10102;50.828;4.416;2024-01-27T02:40:29;6.00;99.90
19880;DHT22;10102;50.828;4.416;2024-01-27T02:42:55;6.00;99.90
19880;DHT22;10102;50.828;4.416;2024-01-27T02:45:21;6.00;99.90
19880;DHT22;10102;50.828;4.416;2024-01-27T02:50:13;5.80;99.90
19880;DHT22;10102;50.828;4.416;2024-01-27T02:52:38;5.90;99.90
19880;DHT22;10102;50.828;4.416;2024-01-27T02:55:05;5.80;99.90
19880;DHT22;10102;50.828;4.416;2024-01-27T02:57:30;5.60;99.90
19880;DHT22;10102;50.828;4.416;2024-01-27T02:59:56;5.60;99.90
19880;DHT22;10102;50.828;4.416;2024-01-27T03:04:48;5.60;99.90
19880;DHT22;10102;50.828;4.416;2024-01-27T03:09:39;5.60;99.90
19880;DHT22;10102;50.828;4.416;2024-01-27T03:12:05;5.70;99.90
19880;DHT22;10102;50.828;4.416;2024-01-27T03:14:31;5.60;99.90
19880;DHT22;10102;50.828;4.416;2024-01-27T03:16:58;5.60;99.90
19880;DHT22;10102;50.828;4.416;2024-01-27T03:19:23;5.60;99.90
19880;DHT22;10102;50.828;4.416;2024-01-27T03:21:49;5.60;99.90
19880;DHT22;10102;50.828;4.416;2024-01-27T03:24:14;5.60;99.90
19880;DHT22;10102;50.828;4.416;2024-01-27T03:26:40;5.60;99.90
19880;DHT22;10102;50.828;4.416;2024-01-27T03:29:06;5.60;99.90
19880;DHT22;10102;50.828;4.416;2024-01-27T03:31:34;5.70;99.90
19880;DHT22;10102;50.828;4.416;2024-01-27T03:34:01;5.60;99.90
19880;DHT22;10102;50.828;4.416;2024-01-27T03:36:27;5.70;99.90
19880;DHT22;10102;50.828;4.416;2024-01-27T03:38:53;5.50;99.90
19880;DHT22;10102;50.828;4.416;2024-01-27T03:41:19;5.60;99.90
19880;DHT22;10102;50.828;4.416;2024-01-27T03:43:44;5.60;99.90
19880;DHT22;10102;50.828;4.416;2024-01-27T03:46:10;5.50;99.90
19880;DHT22;10102;50.828;4.416;2024-01-27T03:48:36;5.60;99.90
19880;DHT22;10102;50.828;4.416;2024-01-27T03:51:02;5.60;99.90
19880;DHT22;10102;50.828;4.416;2024-01-27T03:53:28;5.60;99.90
19880;DHT22;10102;50.828;4.416;2024-01-27T03:55:54;5.50;99.90
19880;DHT22;10102;50.828;4.416;2024-01-27T03:58:20;5.50;99.90
19880;DHT22;10102;50.828;4.416;2024-01-27T04:00:46;5.40;99.90
19880;DHT22;10102;50.828;4.416;2024-01-27T04:03:11;5.30;99.90
19880;DHT22;10102;50.828;4.416;2024-01-27T04:05:37;5.30;99.90
19880;DHT22;10102;50.828;4.416;2024-01-27T04:08:04;5.20;99.90
19880;DHT22;10102;50.828;4.416;2024-01-27T04:10:30;5.40;99.90
19880;DHT22;10102;50.828;4.416;2024-01-27T04:12:56;5.40;99.90
19880;DHT22;10102;50.828;4.416;2024-01-27T04:17:47;5.30;99.90
19880;DHT22;10102;50.828;4.416;2024-01-27T04:20:13;5.30;99.90
19880;DHT22;10102;50.828;4.416;2024-01-27T04:25:05;5.30;99.90
19880;DHT22;10102;50.828;4.416;2024-01-27T04:27:36;5.30;99.90
19880;DHT22;10102;50.828;4.416;2024-01-27T04:30:11;5.30;99.90
19880;DHT22;10102;50.828;4.416;2024-01-27T04:32:38;5.30;99.90
19880;DHT22;10102;50.828;4.416;2024-01-27T04:35:04;5.60;99.90
19880;DHT22;10102;50.828;4.416;2024-01-27T04:39:56;5.30;99.90
19880;DHT22;10102;50.828;4.416;2024-01-27T04:42:22;5.40;99.90
19880;DHT22;10102;50.828;4.416;2024-01-27T04:44:47;5.30;99.90
19880;DHT22;10102;50.828;4.416;2024-01-27T04:47:13;5.20;99.90
19880;DHT22;10102;50.828;4.416;2024-01-27T04:49:39;5.20;99.90
19880;DHT22;10102;50.828;4.416;2024-01-27T04:52:04;5.10;99.90
19880;DHT22;10102;50.828;4.416;2024-01-27T04:54:31;5.20;99.90
19880;DHT22;10102;50.828;4.416;2024-01-27T05:01:50;5.70;99.90
19880;DHT22;10102;50.828;4.416;2024-01-27T05:04:16;5.30;99.90
19880;DHT22;10102;50.828;4.416;2024-01-27T05:06:45;5.30;99.90
19880;DHT22;10102;50.828;4.416;2024-01-27T05:09:14;5.20;99.90
19880;DHT22;10102;50.828;4.416;2024-01-27T05:11:41;5.30;99.90
19880;DHT22;10102;50.828;4.416;2024-01-27T05:14:11;5.30;99.90
19880;DHT22;10102;50.828;4.416;2024-01-27T05:16:36;5.20;99.90
19880;DHT22;10102;50.828;4.416;2024-01-27T05:21:28;5.30;99.90
19880;DHT22;10102;50.828;4.416;2024-01-27T05:23:54;5.20;99.90
19880;DHT22;10102;50.828;4.416;2024-01-27T05:26:20;5.10;99.90
19880;DHT22;10102;50.828;4.416;2024-01-27T05:28:46;5.40;99.90
19880;DHT22;10102;50.828;4.416;2024-01-27T05:31:12;4.90;99.90
19880;DHT22;10102;50.828;4.416;2024-01-27T05:33:38;4.70;99.90
19880;DHT22;10102;50.828;4.416;2024-01-27T05:36:05;5.10;99.90
19880;DHT22;10102;50.828;4.416;2024-01-27T05:38:31;5.00;99.90
19880;DHT22;10102;50.828;4.416;2024-01-27T05:41:00;5.10;99.90
19880;DHT22;10102;50.828;4.416;2024-01-27T05:43:26;5.00;99.90
19880;DHT22;10102;50.828;4.416;2024-01-27T05:45:52;5.50;99.90
19880;DHT22;10102;50.828;4.416;2024-01-27T05:50:43;5.00;99.90
19880;DHT22;10102;50.828;4.416;2024-01-27T05:53:09;5.10;99.90
19880;DHT22;10102;50.828;4.416;2024-01-27T05:55:35;5.10;99.90
19880;DHT22;10102;50.828;4.416;2024-01-27T05:58:01;6.70;99.90
19880;DHT22;10102;50.828;4.416;2024-01-27T06:00:26;5.20;99.90
19880;DHT22;10102;50.828;4.416;2024-01-27T06:02:52;5.10;99.90
19880;DHT22;10102;50.828;4.416;2024-01-27T06:05:18;5.10;99.90
19880;DHT22;10102;50.828;4.416;2024-01-27T06:07:44;5.10;99.90
19880;DHT22;10102;50.828;4.416;2024-01-27T06:10:14;5.10;99.90
19880;DHT22;10102;50.828;4.416;2024-01-27T06:12:40;5.30;99.90
19880;DHT22;10102;50.828;4.416;2024-01-27T06:15:06;5.00;99.90
19880;DHT22;10102;50.828;4.416;2024-01-27T06:17:34;5.00;99.90
19880;DHT22;10102;50.828;4.416;2024-01-27T06:20:00;4.90;99.90
19880;DHT22;10102;50.828;4.416;2024-01-27T06:22:25;5.00;99.90
19880;DHT22;10102;50.828;4.416;2024-01-27T06:27:17;5.00;99.90
19880;DHT22;10102;50.828;4.416;2024-01-27T06:29:42;4.90;99.90
19880;DHT22;10102;50.828;4.416;2024-01-27T06:32:09;4.90;99.90
19880;DHT22;10102;50.828;4.416;2024-01-27T06:34:35;4.90;99.90
19880;DHT22;10102;50.828;4.416;2024-01-27T06:37:01;5.00;99.90
19880;DHT22;10102;50.828;4.416;2024-01-27T06:39:26;5.10;99.90
19880;DHT22;10102;50.828;4.416;2024-01-27T06:41:52;5.00;99.90
19880;DHT22;10102;50.828;4.416;2024-01-27T06:44:18;5.20;99.90
19880;DHT22;10102;50.828;4.416;2024-01-27T06:49:12;5.10;99.90
19880;DHT22;10102;50.828;4.416;2024-01-27T06:51:38;5.10;99.90
19880;DHT22;10102;50.828;4.416;2024-01-27T06:54:05;4.90;99.90
19880;DHT22;10102;50.828;4.416;2024-01-27T06:56:31;4.90;99.90
19880;DHT22;10102;50.828;4.416;2024-01-27T06:58:57;4.90;99.90
19880;DHT22;10102;50.828;4.416;2024-01-27T07:01:23;4.80;99.90
19880;DHT22;10102;50.828;4.416;2024-01-27T07:03:49;5.00;99.90
19880;DHT22;10102;50.828;4.416;2024-01-27T07:06:15;4.80;99.90
19880;DHT22;10102;50.828;4.416;2024-01-27T07:08:43;4.80;99.90
19880;DHT22;10102;50.828;4.416;2024-01-27T07:11:09;4.60;99.90
19880;DHT22;10102;50.828;4.416;2024-01-27T07:13:35;4.40;99.90
19880;DHT22;10102;50.828;4.416;2024-01-27T07:16:01;4.60;99.90
19880;DHT22;10102;50.828;4.416;2024-01-27T07:23:20;4.60;99.90
19880;DHT22;10102;50.828;4.416;2024-01-27T07:25:46;4.60;99.90
19880;DHT22;10102;50.828;4.416;2024-01-27T07:28:12;4.70;99.90
19880;DHT22;10102;50.828;4.416;2024-01-27T07:30:38;4.40;99.90
19880;DHT22;10102;50.828;4.416;2024-01-27T07:33:04;4.70;99.90
19880;DHT22;10102;50.828;4.416;2024-01-27T07:35:30;4.70;99.90
19880;DHT22;10102;50.828;4.416;2024-01-27T07:40:23;4.80;99.90
19880;DHT22;10102;50.828;4.416;2024-01-27T07:45:15;4.80;99.90
19880;DHT22;10102;50.828;4.416;2024-01-27T07:47:41;4.90;99.90
19880;DHT22;10102;50.828;4.416;2024-01-27T07:50:07;4.80;99.90
19880;DHT22;10102;50.828;4.416;2024-01-27T07:52:33;4.90;99.90
19880;DHT22;10102;50.828;4.416;2024-01-27T07:54:59;4.90;99.90
19880;DHT22;10102;50.828;4.416;2024-01-27T07:59:50;5.00;99.90
19880;DHT22;10102;50.828;4.416;2024-01-27T08:02:16;5.00;99.90
19880;DHT22;10102;50.828;4.416;2024-01-27T08:04:42;5.00;99.90
19880;DHT22;10102;50.828;4.416;2024-01-27T08:07:07;5.00;99.90
19880;DHT22;10102;50.828;4.416;2024-01-27T08:09:36;4.90;99.90
19880;DHT22;10102;50.828;4.416;2024-01-27T08:12:02;4.90;99.90
19880;DHT22;10102;50.828;4.416;2024-01-27T08:14:28;5.00;99.90
19880;DHT22;10102;50.828;4.416;2024-01-27T08:16:56;5.10;99.90
19880;DHT22;10102;50.828;4.416;2024-01-27T08:19:23;5.10;99.90
19880;DHT22;10102;50.828;4.416;2024-01-27T08:21:49;5.20;99.90
19880;DHT22;10102;50.828;4.416;2024-01-27T08:24:15;5.20;99.90
19880;DHT22;10102;50.828;4.416;2024-01-27T08:26:41;5.20;99.90
19880;DHT22;10102;50.828;4.416;2024-01-27T08:29:08;5.20;99.90
19880;DHT22;10102;50.828;4.416;2024-01-27T08:31:34;5.20;99.90
19880;DHT22;10102;50.828;4.416;2024-01-27T08:34:00;5.10;99.90
19880;DHT22;10102;50.828;4.416;2024-01-27T08:38:52;5.40;99.90
19880;DHT22;10102;50.828;4.416;2024-01-27T08:41:18;5.40;99.90
19880;DHT22;10102;50.828;4.416;2024-01-27T08:43:43;5.40;99.90
19880;DHT22;10102;50.828;4.416;2024-01-27T08:46:09;5.60;99.90
19880;DHT22;10102;50.828;4.416;2024-01-27T08:48:38;5.60;99.90
19880;DHT22;10102;50.828;4.416;2024-01-27T08:51:03;6.10;99.90
19880;DHT22;10102;50.828;4.416;2024-01-27T08:55:58;5.70;99.90
19880;DHT22;10102;50.828;4.416;2024-01-27T09:00:50;5.80;99.90
19880;DHT22;10102;50.828;4.416;2024-01-27T09:03:16;5.50;99.90
19880;DHT22;10102;50.828;4.416;2024-01-27T09:08:10;5.70;99.90
19880;DHT22;10102;50.828;4.416;2024-01-27T09:13:02;5.70;99.90
19880;DHT22;10102;50.828;4.416;2024-01-27T09:15:28;5.80;99.90
19880;DHT22;10102;50.828;4.416;2024-01-27T09:17:53;5.90;99.90
19880;DHT22;10102;50.828;4.416;2024-01-27T09:20:19;5.80;99.90
19880;DHT22;10102;50.828;4.416;2024-01-27T09:22:45;6.10;99.90
19880;DHT22;10102;50.828;4.416;2024-01-27T09:25:13;6.10;99.90
19880;DHT22;10102;50.828;4.416;2024-01-27T09:27:39;6.00;99.90
19880;DHT22;10102;50.828;4.416;2024-01-27T09:30:05;6.10;99.90
19880;DHT22;10102;50.828;4.416;2024-01-27T09:32:32;6.20;99.90
19880;DHT22;10102;50.828;4.416;2024-01-27T09:37:24;6.30;99.90
19880;DHT22;10102;50.828;4.416;2024-01-27T09:42:16;6.30;99.90
19880;DHT22;10102;50.828;4.416;2024-01-27T09:44:50;6.30;99.90
19880;DHT22;10102;50.828;4.416;2024-01-27T09:47:17;6.30;99.90
19880;DHT22;10102;50.828;4.416;2024-01-27T09:49:43;6.40;99.90
19880;DHT22;10102;50.828;4.416;2024-01-27T09:54:35;6.50;99.90
19880;DHT22;10102;50.828;4.416;2024-01-27T09:57:02;6.60;99.90
19880;DHT22;10102;50.828;4.416;2024-01-27T09:59:29;6.70;99.90
19880;DHT22;10102;50.828;4.416;2024-01-27T10:01:56;7.00;99.90
19880;DHT22;10102;50.828;4.416;2024-01-27T10:04:24;7.10;99.90
19880;DHT22;10102;50.828;4.416;2024-01-27T10:06:50;7.10;99.90
19880;DHT22;10102;50.828;4.416;2024-01-27T10:11:47;7.80;99.90
19880;DHT22;10102;50.828;4.416;2024-01-27T10:16:45;9.60;99.90
19880;DHT22;10102;50.828;4.416;2024-01-27T10:19:18;9.90;99.90
19880;DHT22;10102;50.828;4.416;2024-01-27T10:21:47;10.60;99.90
19880;DHT22;10102;50.828;4.416;2024-01-27T10:24:14;10.70;99.90
19880;DHT22;10102;50.828;4.416;2024-01-27T10:26:40;10.60;99.90
19880;DHT22;10102;50.828;4.416;2024-01-27T10:29:05;10.50;99.90
19880;DHT22;10102;50.828;4.416;2024-01-27T10:31:34;11.00;99.90
19880;DHT22;10102;50.828;4.416;2024-01-27T10:34:00;11.00;99.90
19880;DHT22;10102;50.828;4.416;2024-01-27T10:36:41;12.00;99.90
19880;DHT22;10102;50.828;4.416;2024-01-27T10:39:23;12.10;99.90
19880;DHT22;10102;50.828;4.416;2024-01-27T10:41:50;12.70;99.90
19880;DHT22;10102;50.828;4.416;2024-01-27T10:44:20;12.70;99.90
19880;DHT22;10102;50.828;4.416;2024-01-27T10:46:49;12.30;99.90
19880;DHT22;10102;50.828;4.416;2024-01-27T10:49:16;12.50;99.90
19880;DHT22;10102;50.828;4.416;2024-01-27T10:51:45;12.60;99.90
19880;DHT22;10102;50.828;4.416;2024-01-27T10:54:14;13.80;99.90
19880;DHT22;10102;50.828;4.416;2024-01-27T10:56:42;15.40;99.90
19880;DHT22;10102;50.828;4.416;2024-01-27T10:59:09;17.00;99.90
19880;DHT22;10102;50.828;4.416;2024-01-27T11:01:38;18.90;99.90
19880;DHT22;10102;50.828;4.416;2024-01-27T11:04:05;20.40;99.90
19880;DHT22;10102;50.828;4.416;2024-01-27T11:06:32;20.40;99.90
19880;DHT22;10102;50.828;4.416;2024-01-27T11:09:02;21.70;99.90
19880;DHT22;10102;50.828;4.416;2024-01-27T11:11:31;21.70;99.90
19880;DHT22;10102;50.828;4.416;2024-01-27T11:13:58;22.10;99.90
19880;DHT22;10102;50.828;4.416;2024-01-27T11:16:24;23.20;99.90
19880;DHT22;10102;50.828;4.416;2024-01-27T11:18:49;23.00;99.90
19880;DHT22;10102;50.828;4.416;2024-01-27T11:21:16;22.80;99.90
19880;DHT22;10102;50.828;4.416;2024-01-27T11:23:42;23.40;99.20
19880;DHT22;10102;50.828;4.416;2024-01-27T11:26:10;22.10;98.60
19880;DHT22;10102;50.828;4.416;2024-01-27T11:28:40;21.70;98.30
19880;DHT22;10102;50.828;4.416;2024-01-27T11:31:07;22.00;99.90
19880;DHT22;10102;50.828;4.416;2024-01-27T11:33:33;21.80;99.90
19880;DHT22;10102;50.828;4.416;2024-01-27T11:36:03;21.70;97.90
19880;DHT22;10102;50.828;4.416;2024-01-27T11:38:30;21.60;99.90
19880;DHT22;10102;50.828;4.416;2024-01-27T11:40:56;20.90;99.90
19880;DHT22;10102;50.828;4.416;2024-01-27T11:45:58;19.50;99.90
19880;DHT22;10102;50.828;4.416;2024-01-27T11:48:24;19.00;99.90
19880;DHT22;10102;50.828;4.416;2024-01-27T11:51:07;18.60;99.90
19880;DHT22;10102;50.828;4.416;2024-01-27T11:53:36;18.10;99.90
19880;DHT22;10102;50.828;4.416;2024-01-27T11:56:03;17.50;99.90
19880;DHT22;10102;50.828;4.416;2024-01-27T11:58:30;17.60;99.90
19880;DHT22;10102;50.828;4.416;2024-01-27T12:00:58;17.10;99.90
19880;DHT22;10102;50.828;4.416;2024-01-27T12:03:25;17.60;99.90
19880;DHT22;10102;50.828;4.416;2024-01-27T12:05:50;18.10;99.90
19880;DHT22;10102;50.828;4.416;2024-01-27T12:08:17;19.00;99.90
19880;DHT22;10102;50.828;4.416;2024-01-27T12:10:42;20.20;99.90
19880;DHT22;10102;50.828;4.416;2024-01-27T12:13:08;20.80;99.90
19880;DHT22;10102;50.828;4.416;2024-01-27T12:15:34;21.60;99.90
19880;DHT22;10102;50.828;4.416;2024-01-27T12:18:01;21.50;96.70
19880;DHT22;10102;50.828;4.416;2024-01-27T12:20:27;22.70;99.90
19880;DHT22;10102;50.828;4.416;2024-01-27T12:23:03;22.70;94.20
19880;DHT22;10102;50.828;4.416;2024-01-27T12:27:55;22.90;92.50
19880;DHT22;10102;50.828;4.416;2024-01-27T12:30:21;22.10;92.90
19880;DHT22;10102;50.828;4.416;2024-01-27T12:32:48;22.20;94.10
19880;DHT22;10102;50.828;4.416;2024-01-27T12:35:17;22.50;93.80
19880;DHT22;10102;50.828;4.416;2024-01-27T12:37:46;23.00;99.70
19880;DHT22;10102;50.828;4.416;2024-01-27T12:40:30;22.60;99.50
19880;DHT22;10102;50.828;4.416;2024-01-27T12:42:57;22.40;99.10
19880;DHT22;10102;50.828;4.416;2024-01-27T12:45:24;22.20;99.00
19880;DHT22;10102;50.828;4.416;2024-01-27T12:47:50;21.40;99.80
19880;DHT22;10102;50.828;4.416;2024-01-27T12:50:17;20.10;99.90
19880;DHT22;10102;50.828;4.416;2024-01-27T12:52:42;18.20;99.90
19880;DHT22;10102;50.828;4.416;2024-01-27T12:55:10;17.20;99.90
19880;DHT22;10102;50.828;4.416;2024-01-27T13:00:03;15.60;99.90
19880;DHT22;10102;50.828;4.416;2024-01-27T13:02:35;14.50;99.90
19880;DHT22;10102;50.828;4.416;2024-01-27T13:05:01;14.20;99.90
19880;DHT22;10102;50.828;4.416;2024-01-27T13:07:26;14.40;99.90
19880;DHT22;10102;50.828;4.416;2024-01-27T13:09:52;13.60;99.90
19880;DHT22;10102;50.828;4.416;2024-01-27T13:12:18;13.50;99.90
19880;DHT22;10102;50.828;4.416;2024-01-27T13:17:10;13.10;99.90
19880;DHT22;10102;50.828;4.416;2024-01-27T13:19:36;13.00;99.90
19880;DHT22;10102;50.828;4.416;2024-01-27T13:22:02;13.00;99.90
19880;DHT22;10102;50.828;4.416;2024-01-27T13:24:28;12.90;99.90
19880;DHT22;10102;50.828;4.416;2024-01-27T13:26:54;13.00;99.90
19880;DHT22;10102;50.828;4.416;2024-01-27T13:29:20;12.80;99.90
19880;DHT22;10102;50.828;4.416;2024-01-27T13:31:46;12.70;99.90
19880;DHT22;10102;50.828;4.416;2024-01-27T13:34:12;12.40;99.90
19880;DHT22;10102;50.828;4.416;2024-01-27T13:36:38;12.40;99.90
19880;DHT22;10102;50.828;4.416;2024-01-27T13:39:03;12.40;99.90
19880;DHT22;10102;50.828;4.416;2024-01-27T13:41:29;12.80;99.90
19880;DHT22;10102;50.828;4.416;2024-01-27T13:46:21;12.80;99.90
19880;DHT22;10102;50.828;4.416;2024-01-27T13:48:48;12.80;99.90
19880;DHT22;10102;50.828;4.416;2024-01-27T13:51:14;12.80;99.90
19880;DHT22;10102;50.828;4.416;2024-01-27T13:53:40;12.30;99.90
19880;DHT22;10102;50.828;4.416;2024-01-27T13:56:06;12.20;99.90
19880;DHT22;10102;50.828;4.416;2024-01-27T13:58:32;12.10;99.90
19880;DHT22;10102;50.828;4.416;2024-01-27T14:00:58;12.00;99.90
19880;DHT22;10102;50.828;4.416;2024-01-27T14:03:24;12.00;99.90
19880;DHT22;10102;50.828;4.416;2024-01-27T14:05:50;12.00;99.90
19880;DHT22;10102;50.828;4.416;2024-01-27T14:08:15;12.00;99.90
19880;DHT22;10102;50.828;4.416;2024-01-27T14:10:43;12.10;99.90
19880;DHT22;10102;50.828;4.416;2024-01-27T14:13:09;11.80;99.90
19880;DHT22;10102;50.828;4.416;2024-01-27T14:15:38;12.00;99.90
19880;DHT22;10102;50.828;4.416;2024-01-27T14:18:04;12.00;99.90
19880;DHT22;10102;50.828;4.416;2024-01-27T14:20:32;11.60;99.90
19880;DHT22;10102;50.828;4.416;2024-01-27T14:23:00;11.50;99.90
19880;DHT22;10102;50.828;4.416;2024-01-27T14:25:25;11.50;99.90
19880;DHT22;10102;50.828;4.416;2024-01-27T14:27:52;11.30;99.90
19880;DHT22;10102;50.828;4.416;2024-01-27T14:30:17;11.40;99.90
19880;DHT22;10102;50.828;4.416;2024-01-27T14:35:09;11.30;99.90
19880;DHT22;10102;50.828;4.416;2024-01-27T14:37:35;11.30;99.90
19880;DHT22;10102;50.828;4.416;2024-01-27T14:40:01;11.60;99.90
19880;DHT22;10102;50.828;4.416;2024-01-27T14:42:26;11.30;99.90
19880;DHT22;10102;50.828;4.416;2024-01-27T14:44:53;11.20;99.90
19880;DHT22;10102;50.828;4.416;2024-01-27T14:47:21;11.30;99.90
19880;DHT22;10102;50.828;4.416;2024-01-27T14:49:46;11.70;99.90
19880;DHT22;10102;50.828;4.416;2024-01-27T14:52:12;11.50;99.90
19880;DHT22;10102;50.828;4.416;2024-01-27T14:54:38;11.40;99.90
19880;DHT22;10102;50.828;4.416;2024-01-27T14:57:05;11.60;99.90
19880;DHT22;10102;50.828;4.416;2024-01-27T14:59:32;11.30;99.90
19880;DHT22;10102;50.828;4.416;2024-01-27T15:01:58;11.40;99.90
19880;DHT22;10102;50.828;4.416;2024-01-27T15:04:24;11.50;99.90
19880;DHT22;10102;50.828;4.416;2024-01-27T15:06:56;11.40;99.90
19880;DHT22;10102;50.828;4.416;2024-01-27T15:09:23;11.50;99.90
19880;DHT22;10102;50.828;4.416;2024-01-27T15:11:49;11.80;99.90
19880;DHT22;10102;50.828;4.416;2024-01-27T15:14:15;11.30;99.90
19880;DHT22;10102;50.828;4.416;2024-01-27T15:19:08;11.30;99.90
19880;DHT22;10102;50.828;4.416;2024-01-27T15:21:34;11.40;99.90
19880;DHT22;10102;50.828;4.416;2024-01-27T15:24:00;11.40;99.90
19880;DHT22;10102;50.828;4.416;2024-01-27T15:26:25;11.50;99.90
19880;DHT22;10102;50.828;4.416;2024-01-27T15:28:52;11.50;99.90
19880;DHT22;10102;50.828;4.416;2024-01-27T15:31:18;11.40;99.90
19880;DHT22;10102;50.828;4.416;2024-01-27T15:33:44;11.70;99.90
19880;DHT22;10102;50.828;4.416;2024-01-27T15:36:11;11.40;99.90
19880;DHT22;10102;50.828;4.416;2024-01-27T15:38:36;11.40;99.90
19880;DHT22;10102;50.828;4.416;2024-01-27T15:41:02;11.20;99.90
19880;DHT22;10102;50.828;4.416;2024-01-27T15:43:36;11.20;99.90
19880;DHT22;10102;50.828;4.416;2024-01-27T15:46:02;11.10;99.90
19880;DHT22;10102;50.828;4.416;2024-01-27T15:48:31;11.10;99.90
19880;DHT22;10102;50.828;4.416;2024-01-27T15:50:58;11.00;99.90
19880;DHT22;10102;50.828;4.416;2024-01-27T15:53:25;11.20;99.90
19880;DHT22;10102;50.828;4.416;2024-01-27T15:55:50;11.00;99.90
19880;DHT22;10102;50.828;4.416;2024-01-27T15:58:16;11.00;99.90
19880;DHT22;10102;50.828;4.416;2024-01-27T16:00:42;10.80;99.90
19880;DHT22;10102;50.828;4.416;2024-01-27T16:03:08;10.80;99.90
19880;DHT22;10102;50.828;4.416;2024-01-27T16:05:33;10.40;99.90
19880;DHT22;10102;50.828;4.416;2024-01-27T16:07:59;10.70;99.90
19880;DHT22;10102;50.828;4.416;2024-01-27T16:10:25;10.50;99.90
19880;DHT22;10102;50.828;4.416;2024-01-27T16:12:50;10.50;99.90
19880;DHT22;10102;50.828;4.416;2024-01-27T16:15:16;10.40;99.90
19880;DHT22;10102;50.828;4.416;2024-01-27T16:17:41;10.30;99.90
19880;DHT22;10102;50.828;4.416;2024-01-27T16:20:08;10.20;99.90
19880;DHT22;10102;50.828;4.416;2024-01-27T16:22:33;10.20;99.90
19880;DHT22;10102;50.828;4.416;2024-01-27T16:24:59;9.90;99.90
19880;DHT22;10102;50.828;4.416;2024-01-27T16:27:25;10.00;99.90
19880;DHT22;10102;50.828;4.416;2024-01-27T16:29:54;9.90;99.90
19880;DHT22;10102;50.828;4.416;2024-01-27T16:32:20;9.90;99.90
19880;DHT22;10102;50.828;4.416;2024-01-27T16:34:46;9.70;99.90
19880;DHT22;10102;50.828;4.416;2024-01-27T16:37:11;9.60;99.90
19880;DHT22;10102;50.828;4.416;2024-01-27T16:39:37;9.40;99.90
19880;DHT22;10102;50.828;4.416;2024-01-27T16:42:03;9.60;99.90
19880;DHT22;10102;50.828;4.416;2024-01-27T16:44:29;9.70;99.90
19880;DHT22;10102;50.828;4.416;2024-01-27T16:46:55;9.60;99.90
19880;DHT22;10102;50.828;4.416;2024-01-27T16:49:21;9.60;99.90
19880;DHT22;10102;50.828;4.416;2024-01-27T16:51:48;9.50;99.90
19880;DHT22;10102;50.828;4.416;2024-01-27T16:54:14;9.30;99.90
19880;DHT22;10102;50.828;4.416;2024-01-27T16:56:40;9.30;99.90
19880;DHT22;10102;50.828;4.416;2024-01-27T16:59:06;9.30;99.90
19880;DHT22;10102;50.828;4.416;2024-01-27T17:01:33;9.30;99.90
19880;DHT22;10102;50.828;4.416;2024-01-27T17:04:00;9.20;99.90
19880;DHT22;10102;50.828;4.416;2024-01-27T17:06:26;9.10;99.90
19880;DHT22;10102;50.828;4.416;2024-01-27T17:08:52;9.20;99.90
19880;DHT22;10102;50.828;4.416;2024-01-27T17:11:19;9.30;99.90
19880;DHT22;10102;50.828;4.416;2024-01-27T17:13:44;9.20;99.90
19880;DHT22;10102;50.828;4.416;2024-01-27T17:18:37;9.10;99.90
19880;DHT22;10102;50.828;4.416;2024-01-27T17:21:04;9.10;99.90